Wartburg, Tennessee
Current Conditions -  °F | °C
As of 3:53 PM on Monday 24 Nov 2014 (Local Time) from KOQT Reporting Station
Clear Clear  
Wind Chill: 68°   Ceiling: Unl
Heat Index: 68°   Visibility: 10mi
Dew Point: 40°   Wind: 12mph
Humidity: 36%   Direction: 250°WSW
Pressure: 29.76"   Gusts: 22mph
Location:  36.1°N, 84.6°W
Report Text: KOQT 242053Z AUTO 25010G19KT 10SM CLR 20/04 A2976 RMK AO2 SLP071 T02000044 53018
Loading
Personal Weather Stations






























Interactive Weather Map New forecast layout! Learn more

10-Day Weather Forecast

Advertisements
Track Severe Weather on mobile